sensor_id;sensor_type;location;lat;lon;timestamp;P1;durP1;ratioP1;P2;durP2;ratioP2
20040;SDS011;10181;48.072;9.884;2022-09-09T00:04:21;1.60;;;1.50;;
20040;SDS011;10181;48.072;9.884;2022-09-09T00:09:44;1.70;;;1.60;;
20040;SDS011;10181;48.072;9.884;2022-09-09T00:12:57;1.77;;;1.57;;
20040;SDS011;10181;48.072;9.884;2022-09-09T00:15:12;2.60;;;2.30;;
20040;SDS011;10181;48.072;9.884;2022-09-09T00:20:29;2.23;;;2.10;;
20040;SDS011;10181;48.072;9.884;2022-09-09T00:23:02;2.10;;;2.00;;
20040;SDS011;10181;48.072;9.884;2022-09-09T00:28:24;2.07;;;2.00;;
20040;SDS011;10181;48.072;9.884;2022-09-09T00:30:52;2.40;;;2.30;;
20040;SDS011;10181;48.072;9.884;2022-09-09T00:33:20;2.10;;;2.00;;
20040;SDS011;10181;48.072;9.884;2022-09-09T00:35:52;2.13;;;2.13;;
20040;SDS011;10181;48.072;9.884;2022-09-09T00:38:35;2.70;;;2.60;;
20040;SDS011;10181;48.072;9.884;2022-09-09T00:41:10;2.30;;;2.20;;
20040;SDS011;10181;48.072;9.884;2022-09-09T00:43:42;2.60;;;2.50;;
20040;SDS011;10181;48.072;9.884;2022-09-09T00:54:38;2.90;;;2.70;;
20040;SDS011;10181;48.072;9.884;2022-09-09T00:57:13;5.33;;;5.03;;
20040;SDS011;10181;48.072;9.884;2022-09-09T01:00:37;12.77;;;12.33;;
20040;SDS011;10181;48.072;9.884;2022-09-09T01:08:41;147.60;;;142.03;;
20040;SDS011;10181;48.072;9.884;2022-09-09T01:11:22;167.47;;;161.17;;
20040;SDS011;10181;48.072;9.884;2022-09-09T01:14:40;162.60;;;156.43;;
20040;SDS011;10181;48.072;9.884;2022-09-09T01:16:59;150.23;;;144.53;;
20040;SDS011;10181;48.072;9.884;2022-09-09T01:22:34;82.37;;;79.10;;
20040;SDS011;10181;48.072;9.884;2022-09-09T01:27:46;38.37;;;37.00;;
20040;SDS011;10181;48.072;9.884;2022-09-09T01:30:15;24.60;;;23.80;;
20040;SDS011;10181;48.072;9.884;2022-09-09T01:32:44;26.27;;;25.37;;
20040;SDS011;10181;48.072;9.884;2022-09-09T01:37:46;11.93;;;11.53;;
20040;SDS011;10181;48.072;9.884;2022-09-09T01:40:18;7.70;;;7.50;;
20040;SDS011;10181;48.072;9.884;2022-09-09T01:43:21;20.03;;;19.37;;
20040;SDS011;10181;48.072;9.884;2022-09-09T01:45:49;17.17;;;16.53;;
20040;SDS011;10181;48.072;9.884;2022-09-09T01:48:19;23.27;;;22.47;;
20040;SDS011;10181;48.072;9.884;2022-09-09T01:50:46;41.27;;;39.70;;
20040;SDS011;10181;48.072;9.884;2022-09-09T01:53:12;59.77;;;57.47;;
20040;SDS011;10181;48.072;9.884;2022-09-09T01:55:41;88.27;;;84.87;;
20040;SDS011;10181;48.072;9.884;2022-09-09T01:58:17;138.40;;;133.10;;
20040;SDS011;10181;48.072;9.884;2022-09-09T02:01:18;154.27;;;148.40;;
20040;SDS011;10181;48.072;9.884;2022-09-09T02:03:53;141.70;;;135.90;;
20040;SDS011;10181;48.072;9.884;2022-09-09T02:06:26;145.90;;;140.30;;
20040;SDS011;10181;48.072;9.884;2022-09-09T02:08:59;160.37;;;154.33;;
20040;SDS011;10181;48.072;9.884;2022-09-09T02:11:27;154.47;;;148.67;;
20040;SDS011;10181;48.072;9.884;2022-09-09T02:13:59;156.30;;;150.30;;
20040;SDS011;10181;48.072;9.884;2022-09-09T02:16:32;177.83;;;171.17;;
20040;SDS011;10181;48.072;9.884;2022-09-09T02:19:10;203.03;;;195.33;;
20040;SDS011;10181;48.072;9.884;2022-09-09T02:21:41;215.87;;;207.90;;
20040;SDS011;10181;48.072;9.884;2022-09-09T02:24:10;194.70;;;187.40;;
20040;SDS011;10181;48.072;9.884;2022-09-09T02:26:39;208.00;;;200.30;;
20040;SDS011;10181;48.072;9.884;2022-09-09T02:29:41;138.93;;;133.40;;
20040;SDS011;10181;48.072;9.884;2022-09-09T02:32:02;94.50;;;90.90;;
20040;SDS011;10181;48.072;9.884;2022-09-09T02:34:31;120.50;;;115.93;;
20040;SDS011;10181;48.072;9.884;2022-09-09T02:37:01;147.40;;;141.80;;
20040;SDS011;10181;48.072;9.884;2022-09-09T02:39:29;185.93;;;179.00;;
20040;SDS011;10181;48.072;9.884;2022-09-09T02:41:55;222.43;;;214.33;;
20040;SDS011;10181;48.072;9.884;2022-09-09T02:44:21;207.23;;;199.03;;
20040;SDS011;10181;48.072;9.884;2022-09-09T02:46:51;145.73;;;140.13;;
20040;SDS011;10181;48.072;9.884;2022-09-09T02:52:13;63.50;;;61.00;;
20040;SDS011;10181;48.072;9.884;2022-09-09T02:54:43;61.77;;;58.97;;
20040;SDS011;10181;48.072;9.884;2022-09-09T02:57:17;103.90;;;99.70;;
20040;SDS011;10181;48.072;9.884;2022-09-09T02:59:44;102.00;;;98.00;;
20040;SDS011;10181;48.072;9.884;2022-09-09T03:02:11;86.73;;;83.23;;
20040;SDS011;10181;48.072;9.884;2022-09-09T03:04:38;58.50;;;56.17;;
20040;SDS011;10181;48.072;9.884;2022-09-09T03:07:05;39.83;;;38.27;;
20040;SDS011;10181;48.072;9.884;2022-09-09T03:09:31;16.30;;;15.70;;
20040;SDS011;10181;48.072;9.884;2022-09-09T03:11:59;10.90;;;10.50;;
20040;SDS011;10181;48.072;9.884;2022-09-09T03:14:29;17.03;;;16.43;;
20040;SDS011;10181;48.072;9.884;2022-09-09T03:16:55;29.53;;;28.43;;
20040;SDS011;10181;48.072;9.884;2022-09-09T03:19:23;38.07;;;36.57;;
20040;SDS011;10181;48.072;9.884;2022-09-09T03:21:49;65.67;;;63.03;;
20040;SDS011;10181;48.072;9.884;2022-09-09T03:24:15;78.97;;;75.97;;
20040;SDS011;10181;48.072;9.884;2022-09-09T03:26:41;76.97;;;74.03;;
20040;SDS011;10181;48.072;9.884;2022-09-09T03:29:10;56.00;;;53.80;;
20040;SDS011;10181;48.072;9.884;2022-09-09T03:31:37;63.60;;;61.10;;
20040;SDS011;10181;48.072;9.884;2022-09-09T03:34:04;62.70;;;60.27;;
20040;SDS011;10181;48.072;9.884;2022-09-09T03:36:30;58.60;;;56.33;;
20040;SDS011;10181;48.072;9.884;2022-09-09T03:38:56;62.97;;;60.53;;
20040;SDS011;10181;48.072;9.884;2022-09-09T03:41:22;71.63;;;68.90;;
20040;SDS011;10181;48.072;9.884;2022-09-09T03:43:52;61.70;;;59.33;;
20040;SDS011;10181;48.072;9.884;2022-09-09T03:46:18;34.67;;;33.03;;
20040;SDS011;10181;48.072;9.884;2022-09-09T03:48:45;16.63;;;16.03;;
20040;SDS011;10181;48.072;9.884;2022-09-09T03:51:11;16.60;;;16.00;;
20040;SDS011;10181;48.072;9.884;2022-09-09T03:53:37;16.03;;;14.90;;
20040;SDS011;10181;48.072;9.884;2022-09-09T03:56:03;24.53;;;23.53;;
20040;SDS011;10181;48.072;9.884;2022-09-09T03:58:31;62.07;;;59.53;;
20040;SDS011;10181;48.072;9.884;2022-09-09T04:01:02;105.97;;;101.77;;
20040;SDS011;10181;48.072;9.884;2022-09-09T04:03:35;144.53;;;138.93;;
20040;SDS011;10181;48.072;9.884;2022-09-09T04:06:02;174.93;;;168.33;;
20040;SDS011;10181;48.072;9.884;2022-09-09T04:08:29;180.63;;;173.83;;
20040;SDS011;10181;48.072;9.884;2022-09-09T04:10:58;181.23;;;174.43;;
20040;SDS011;10181;48.072;9.884;2022-09-09T04:13:25;187.87;;;180.87;;
20040;SDS011;10181;48.072;9.884;2022-09-09T04:15:55;189.47;;;182.30;;
20040;SDS011;10181;48.072;9.884;2022-09-09T04:18:22;186.63;;;179.50;;
20040;SDS011;10181;48.072;9.884;2022-09-09T04:20:49;186.20;;;178.67;;
20040;SDS011;10181;48.072;9.884;2022-09-09T04:23:15;177.20;;;170.43;;
20040;SDS011;10181;48.072;9.884;2022-09-09T04:25:47;164.07;;;157.80;;
20040;SDS011;10181;48.072;9.884;2022-09-09T04:28:14;186.07;;;179.00;;
20040;SDS011;10181;48.072;9.884;2022-09-09T04:30:41;181.20;;;174.40;;
20040;SDS011;10181;48.072;9.884;2022-09-09T04:33:07;177.50;;;170.70;;
20040;SDS011;10181;48.072;9.884;2022-09-09T04:35:37;178.17;;;171.37;;
20040;SDS011;10181;48.072;9.884;2022-09-09T04:38:04;151.13;;;145.17;;
20040;SDS011;10181;48.072;9.884;2022-09-09T04:40:32;137.47;;;132.07;;
20040;SDS011;10181;48.072;9.884;2022-09-09T04:42:58;144.50;;;138.80;;
20040;SDS011;10181;48.072;9.884;2022-09-09T04:45:24;131.67;;;126.60;;
20040;SDS011;10181;48.072;9.884;2022-09-09T04:47:51;143.40;;;137.90;;
20040;SDS011;10181;48.072;9.884;2022-09-09T04:50:17;124.00;;;119.20;;
20040;SDS011;10181;48.072;9.884;2022-09-09T04:52:43;111.67;;;107.23;;
20040;SDS011;10181;48.072;9.884;2022-09-09T04:55:09;72.37;;;69.43;;
20040;SDS011;10181;48.072;9.884;2022-09-09T04:57:35;46.17;;;44.30;;
20040;SDS011;10181;48.072;9.884;2022-09-09T05:00:01;29.47;;;28.27;;
20040;SDS011;10181;48.072;9.884;2022-09-09T05:02:28;26.60;;;25.67;;
20040;SDS011;10181;48.072;9.884;2022-09-09T05:04:54;15.73;;;15.17;;
20040;SDS011;10181;48.072;9.884;2022-09-09T05:07:20;10.23;;;9.67;;
20040;SDS011;10181;48.072;9.884;2022-09-09T05:09:45;7.17;;;6.87;;
20040;SDS011;10181;48.072;9.884;2022-09-09T05:12:13;6.50;;;6.30;;
20040;SDS011;10181;48.072;9.884;2022-09-09T05:14:38;6.33;;;6.03;;
20040;SDS011;10181;48.072;9.884;2022-09-09T05:17:04;4.57;;;4.47;;
20040;SDS011;10181;48.072;9.884;2022-09-09T05:19:29;5.40;;;5.17;;
20040;SDS011;10181;48.072;9.884;2022-09-09T05:21:56;5.57;;;5.37;;
20040;SDS011;10181;48.072;9.884;2022-09-09T05:24:22;5.17;;;4.83;;
20040;SDS011;10181;48.072;9.884;2022-09-09T05:26:50;4.60;;;4.40;;
20040;SDS011;10181;48.072;9.884;2022-09-09T05:29:16;4.77;;;4.57;;
20040;SDS011;10181;48.072;9.884;2022-09-09T05:31:44;4.80;;;4.60;;
20040;SDS011;10181;48.072;9.884;2022-09-09T05:34:10;4.60;;;4.40;;
20040;SDS011;10181;48.072;9.884;2022-09-09T05:36:36;4.10;;;3.90;;
20040;SDS011;10181;48.072;9.884;2022-09-09T05:39:02;3.87;;;3.77;;
20040;SDS011;10181;48.072;9.884;2022-09-09T05:41:28;4.57;;;4.17;;
20040;SDS011;10181;48.072;9.884;2022-09-09T05:43:54;4.37;;;4.07;;
20040;SDS011;10181;48.072;9.884;2022-09-09T05:46:21;4.40;;;4.03;;
20040;SDS011;10181;48.072;9.884;2022-09-09T05:48:48;4.73;;;4.53;;
20040;SDS011;10181;48.072;9.884;2022-09-09T05:51:19;4.80;;;4.60;;
20040;SDS011;10181;48.072;9.884;2022-09-09T05:53:47;4.03;;;3.93;;
20040;SDS011;10181;48.072;9.884;2022-09-09T05:56:18;4.97;;;4.77;;
20040;SDS011;10181;48.072;9.884;2022-09-09T05:58:46;5.07;;;4.73;;
20040;SDS011;10181;48.072;9.884;2022-09-09T06:01:13;5.13;;;4.73;;
20040;SDS011;10181;48.072;9.884;2022-09-09T06:03:41;4.63;;;4.53;;
20040;SDS011;10181;48.072;9.884;2022-09-09T06:06:09;4.07;;;3.97;;
20040;SDS011;10181;48.072;9.884;2022-09-09T06:08:50;6.63;;;3.60;;
20040;SDS011;10181;48.072;9.884;2022-09-09T06:11:18;3.43;;;3.00;;
20040;SDS011;10181;48.072;9.884;2022-09-09T06:13:44;2.37;;;2.27;;
20040;SDS011;10181;48.072;9.884;2022-09-09T06:16:14;2.93;;;2.73;;
20040;SDS011;10181;48.072;9.884;2022-09-09T06:18:43;2.90;;;2.80;;
20040;SDS011;10181;48.072;9.884;2022-09-09T06:23:43;3.73;;;3.17;;
20040;SDS011;10181;48.072;9.884;2022-09-09T06:26:13;3.40;;;3.20;;
20040;SDS011;10181;48.072;9.884;2022-09-09T06:28:43;2.93;;;2.80;;
20040;SDS011;10181;48.072;9.884;2022-09-09T06:31:15;2.70;;;2.53;;
20040;SDS011;10181;48.072;9.884;2022-09-09T06:33:48;1.87;;;1.87;;
20040;SDS011;10181;48.072;9.884;2022-09-09T06:36:19;2.80;;;2.60;;
20040;SDS011;10181;48.072;9.884;2022-09-09T06:38:49;3.77;;;3.63;;
20040;SDS011;10181;48.072;9.884;2022-09-09T06:41:16;3.50;;;3.27;;
20040;SDS011;10181;48.072;9.884;2022-09-09T06:43:43;2.60;;;2.50;;
20040;SDS011;10181;48.072;9.884;2022-09-09T06:46:10;1.70;;;1.60;;
20040;SDS011;10181;48.072;9.884;2022-09-09T06:48:38;1.30;;;1.30;;
20040;SDS011;10181;48.072;9.884;2022-09-09T06:53:33;1.30;;;1.30;;
20040;SDS011;10181;48.072;9.884;2022-09-09T06:56:01;1.50;;;1.40;;
20040;SDS011;10181;48.072;9.884;2022-09-09T06:58:27;1.60;;;1.50;;
20040;SDS011;10181;48.072;9.884;2022-09-09T07:01:01;1.50;;;1.50;;
20040;SDS011;10181;48.072;9.884;2022-09-09T07:03:30;1.73;;;1.50;;
20040;SDS011;10181;48.072;9.884;2022-09-09T07:05:56;1.60;;;1.50;;
20040;SDS011;10181;48.072;9.884;2022-09-09T07:08:22;1.30;;;1.30;;
20040;SDS011;10181;48.072;9.884;2022-09-09T07:10:49;1.50;;;1.50;;
20040;SDS011;10181;48.072;9.884;2022-09-09T07:13:18;1.73;;;1.23;;
20040;SDS011;10181;48.072;9.884;2022-09-09T07:15:50;1.47;;;1.40;;
20040;SDS011;10181;48.072;9.884;2022-09-09T07:18:17;1.20;;;1.20;;
20040;SDS011;10181;48.072;9.884;2022-09-09T07:20:43;1.40;;;1.30;;
20040;SDS011;10181;48.072;9.884;2022-09-09T07:23:19;1.50;;;1.50;;
20040;SDS011;10181;48.072;9.884;2022-09-09T07:25:45;3.10;;;2.90;;
20040;SDS011;10181;48.072;9.884;2022-09-09T07:28:10;3.47;;;3.37;;
20040;SDS011;10181;48.072;9.884;2022-09-09T07:30:36;2.87;;;2.67;;
20040;SDS011;10181;48.072;9.884;2022-09-09T07:33:02;5.27;;;5.17;;
20040;SDS011;10181;48.072;9.884;2022-09-09T07:35:28;7.20;;;6.90;;
20040;SDS011;10181;48.072;9.884;2022-09-09T07:37:55;10.00;;;9.60;;
20040;SDS011;10181;48.072;9.884;2022-09-09T07:40:21;9.47;;;9.07;;
20040;SDS011;10181;48.072;9.884;2022-09-09T07:42:46;7.23;;;6.87;;
20040;SDS011;10181;48.072;9.884;2022-09-09T07:45:12;5.23;;;5.03;;
20040;SDS011;10181;48.072;9.884;2022-09-09T07:47:39;3.00;;;2.80;;
20040;SDS011;10181;48.072;9.884;2022-09-09T07:50:07;1.93;;;1.90;;
20040;SDS011;10181;48.072;9.884;2022-09-09T07:52:34;1.63;;;1.60;;
20040;SDS011;10181;48.072;9.884;2022-09-09T07:55:00;1.70;;;1.70;;
20040;SDS011;10181;48.072;9.884;2022-09-09T07:57:27;1.90;;;1.80;;
20040;SDS011;10181;48.072;9.884;2022-09-09T07:59:55;1.97;;;1.50;;
20040;SDS011;10181;48.072;9.884;2022-09-09T08:02:22;2.30;;;2.30;;
20040;SDS011;10181;48.072;9.884;2022-09-09T08:04:50;3.30;;;3.10;;
20040;SDS011;10181;48.072;9.884;2022-09-09T08:07:16;3.57;;;3.37;;
20040;SDS011;10181;48.072;9.884;2022-09-09T08:09:42;4.30;;;4.00;;
20040;SDS011;10181;48.072;9.884;2022-09-09T08:12:08;4.20;;;4.00;;
20040;SDS011;10181;48.072;9.884;2022-09-09T08:14:35;2.83;;;2.67;;
20040;SDS011;10181;48.072;9.884;2022-09-09T08:17:01;4.70;;;2.83;;
20040;SDS011;10181;48.072;9.884;2022-09-09T08:19:27;2.37;;;2.17;;
20040;SDS011;10181;48.072;9.884;2022-09-09T08:21:55;2.57;;;2.47;;
20040;SDS011;10181;48.072;9.884;2022-09-09T08:24:20;4.17;;;3.87;;
20040;SDS011;10181;48.072;9.884;2022-09-09T08:26:47;4.10;;;3.93;;
20040;SDS011;10181;48.072;9.884;2022-09-09T08:29:14;4.60;;;4.47;;
20040;SDS011;10181;48.072;9.884;2022-09-09T08:31:43;84.50;;;81.17;;
20040;SDS011;10181;48.072;9.884;2022-09-09T08:34:15;117.97;;;113.33;;
20040;SDS011;10181;48.072;9.884;2022-09-09T08:36:45;48.73;;;46.83;;
20040;SDS011;10181;48.072;9.884;2022-09-09T08:39:13;4.80;;;4.60;;
20040;SDS011;10181;48.072;9.884;2022-09-09T08:44:32;126.83;;;121.90;;
20040;SDS011;10181;48.072;9.884;2022-09-09T08:52:16;157.70;;;151.43;;
20040;SDS011;10181;48.072;9.884;2022-09-09T08:54:46;24.47;;;23.40;;
20040;SDS011;10181;48.072;9.884;2022-09-09T08:57:14;20.93;;;20.23;;
20040;SDS011;10181;48.072;9.884;2022-09-09T08:59:52;46.70;;;44.67;;
20040;SDS011;10181;48.072;9.884;2022-09-09T09:11:02;11.37;;;10.97;;
20040;SDS011;10181;48.072;9.884;2022-09-09T09:13:45;49.50;;;47.60;;
20040;SDS011;10181;48.072;9.884;2022-09-09T09:19:03;17.93;;;17.33;;
20040;SDS011;10181;48.072;9.884;2022-09-09T09:24:27;69.37;;;66.57;;
20040;SDS011;10181;48.072;9.884;2022-09-09T09:27:01;37.63;;;36.23;;
20040;SDS011;10181;48.072;9.884;2022-09-09T09:29:40;24.13;;;23.33;;
20040;SDS011;10181;48.072;9.884;2022-09-09T09:32:09;36.83;;;35.43;;
20040;SDS011;10181;48.072;9.884;2022-09-09T09:34:38;15.17;;;14.60;;
20040;SDS011;10181;48.072;9.884;2022-09-09T09:37:17;15.00;;;14.50;;
20040;SDS011;10181;48.072;9.884;2022-09-09T09:39:55;66.50;;;63.87;;
20040;SDS011;10181;48.072;9.884;2022-09-09T09:42:21;68.73;;;66.07;;
20040;SDS011;10181;48.072;9.884;2022-09-09T09:44:48;55.27;;;53.07;;
20040;SDS011;10181;48.072;9.884;2022-09-09T09:47:15;44.07;;;42.47;;
20040;SDS011;10181;48.072;9.884;2022-09-09T09:49:55;29.93;;;28.70;;
20040;SDS011;10181;48.072;9.884;2022-09-09T09:52:28;45.60;;;43.90;;
20040;SDS011;10181;48.072;9.884;2022-09-09T09:54:55;78.20;;;75.33;;
20040;SDS011;10181;48.072;9.884;2022-09-09T09:57:24;46.73;;;44.73;;
20040;SDS011;10181;48.072;9.884;2022-09-09T10:00:27;13.90;;;13.43;;
20040;SDS011;10181;48.072;9.884;2022-09-09T10:02:47;6.17;;;5.87;;
20040;SDS011;10181;48.072;9.884;2022-09-09T10:07:45;5.10;;;4.90;;
20040;SDS011;10181;48.072;9.884;2022-09-09T10:10:20;4.53;;;4.33;;
20040;SDS011;10181;48.072;9.884;2022-09-09T10:15:32;4.20;;;4.00;;
20040;SDS011;10181;48.072;9.884;2022-09-09T10:21:36;7.13;;;6.73;;
20040;SDS011;10181;48.072;9.884;2022-09-09T10:35:00;11.87;;;11.50;;
20040;SDS011;10181;48.072;9.884;2022-09-09T10:43:28;25.30;;;24.27;;
20040;SDS011;10181;48.072;9.884;2022-09-09T10:57:11;5.00;;;4.80;;
20040;SDS011;10181;48.072;9.884;2022-09-09T10:59:43;34.03;;;32.73;;
20040;SDS011;10181;48.072;9.884;2022-09-09T11:02:19;26.67;;;25.47;;
20040;SDS011;10181;48.072;9.884;2022-09-09T11:04:53;34.80;;;33.53;;
20040;SDS011;10181;48.072;9.884;2022-09-09T11:07:34;28.80;;;27.70;;
20040;SDS011;10181;48.072;9.884;2022-09-09T11:10:18;29.03;;;27.80;;
20040;SDS011;10181;48.072;9.884;2022-09-09T11:12:50;28.80;;;27.57;;
20040;SDS011;10181;48.072;9.884;2022-09-09T11:15:20;23.27;;;22.50;;
20040;SDS011;10181;48.072;9.884;2022-09-09T11:17:55;31.00;;;29.83;;
20040;SDS011;10181;48.072;9.884;2022-09-09T11:20:23;28.70;;;27.73;;
20040;SDS011;10181;48.072;9.884;2022-09-09T11:23:01;28.17;;;26.83;;
20040;SDS011;10181;48.072;9.884;2022-09-09T11:25:46;32.23;;;31.10;;
20040;SDS011;10181;48.072;9.884;2022-09-09T11:28:28;11.07;;;10.77;;
20040;SDS011;10181;48.072;9.884;2022-09-09T11:34:01;12.43;;;12.03;;
20040;SDS011;10181;48.072;9.884;2022-09-09T11:42:05;9.60;;;9.10;;
20040;SDS011;10181;48.072;9.884;2022-09-09T11:44:37;2.30;;;2.30;;
20040;SDS011;10181;48.072;9.884;2022-09-09T11:47:02;2.90;;;2.87;;
20040;SDS011;10181;48.072;9.884;2022-09-09T11:49:29;3.13;;;3.03;;
20040;SDS011;10181;48.072;9.884;2022-09-09T11:52:19;3.13;;;3.03;;
20040;SDS011;10181;48.072;9.884;2022-09-09T11:54:48;9.30;;;9.00;;
20040;SDS011;10181;48.072;9.884;2022-09-09T11:57:25;13.90;;;13.50;;
20040;SDS011;10181;48.072;9.884;2022-09-09T11:59:56;11.80;;;11.47;;
20040;SDS011;10181;48.072;9.884;2022-09-09T12:02:26;7.30;;;7.00;;
20040;SDS011;10181;48.072;9.884;2022-09-09T12:10:27;7.43;;;7.13;;
20040;SDS011;10181;48.072;9.884;2022-09-09T12:15:50;6.60;;;6.40;;
20040;SDS011;10181;48.072;9.884;2022-09-09T12:18:22;5.73;;;5.53;;
20040;SDS011;10181;48.072;9.884;2022-09-09T12:31:42;7.27;;;7.07;;
20040;SDS011;10181;48.072;9.884;2022-09-09T12:39:57;9.13;;;8.80;;
20040;SDS011;10181;48.072;9.884;2022-09-09T12:42:24;7.20;;;6.90;;
20040;SDS011;10181;48.072;9.884;2022-09-09T12:45:02;7.50;;;7.30;;
20040;SDS011;10181;48.072;9.884;2022-09-09T12:47:43;7.67;;;7.47;;
20040;SDS011;10181;48.072;9.884;2022-09-09T12:50:21;7.80;;;7.50;;
20040;SDS011;10181;48.072;9.884;2022-09-09T12:52:50;6.00;;;5.80;;
20040;SDS011;10181;48.072;9.884;2022-09-09T12:55:20;7.00;;;6.73;;
20040;SDS011;10181;48.072;9.884;2022-09-09T12:57:50;32.40;;;31.27;;
20040;SDS011;10181;48.072;9.884;2022-09-09T13:02:52;18.23;;;17.63;;
20040;SDS011;10181;48.072;9.884;2022-09-09T13:05:41;18.57;;;17.97;;
20040;SDS011;10181;48.072;9.884;2022-09-09T13:08:11;2.33;;;2.05;;
20040;SDS011;10181;48.072;9.884;2022-09-09T13:10:43;2.77;;;2.67;;
20040;SDS011;10181;48.072;9.884;2022-09-09T13:13:23;3.23;;;3.13;;
20040;SDS011;10181;48.072;9.884;2022-09-09T13:15:56;3.13;;;2.92;;
20040;SDS011;10181;48.072;9.884;2022-09-09T13:18:25;7.60;;;7.40;;
20040;SDS011;10181;48.072;9.884;2022-09-09T13:20:56;8.30;;;7.90;;
20040;SDS011;10181;48.072;9.884;2022-09-09T13:23:23;4.25;;;4.15;;
20040;SDS011;10181;48.072;9.884;2022-09-09T13:25:55;9.57;;;9.32;;
20040;SDS011;10181;48.072;9.884;2022-09-09T13:28:26;20.48;;;19.70;;
20040;SDS011;10181;48.072;9.884;2022-09-09T13:36:01;3.78;;;3.67;;
20040;SDS011;10181;48.072;9.884;2022-09-09T13:38:30;5.15;;;4.88;;
20040;SDS011;10181;48.072;9.884;2022-09-09T13:41:50;4.63;;;4.53;;
20040;SDS011;10181;48.072;9.884;2022-09-09T13:49:44;50.95;;;49.10;;
20040;SDS011;10181;48.072;9.884;2022-09-09T13:54:47;62.30;;;59.97;;
20040;SDS011;10181;48.072;9.884;2022-09-09T13:57:18;8.77;;;8.48;;
20040;SDS011;10181;48.072;9.884;2022-09-09T13:59:50;12.00;;;11.55;;
20040;SDS011;10181;48.072;9.884;2022-09-09T14:02:17;74.72;;;71.95;;
20040;SDS011;10181;48.072;9.884;2022-09-09T14:04:44;34.00;;;32.83;;
20040;SDS011;10181;48.072;9.884;2022-09-09T14:07:13;25.27;;;24.40;;
20040;SDS011;10181;48.072;9.884;2022-09-09T14:09:40;17.80;;;17.15;;
20040;SDS011;10181;48.072;9.884;2022-09-09T14:12:10;20.30;;;19.60;;
20040;SDS011;10181;48.072;9.884;2022-09-09T14:14:37;7.38;;;6.97;;
20040;SDS011;10181;48.072;9.884;2022-09-09T14:17:03;39.03;;;37.58;;
20040;SDS011;10181;48.072;9.884;2022-09-09T14:19:29;59.25;;;57.10;;
20040;SDS011;10181;48.072;9.884;2022-09-09T14:21:56;8.00;;;7.80;;
20040;SDS011;10181;48.072;9.884;2022-09-09T14:24:25;39.00;;;37.60;;
20040;SDS011;10181;48.072;9.884;2022-09-09T14:26:51;38.63;;;37.22;;
20040;SDS011;10181;48.072;9.884;2022-09-09T14:29:16;33.72;;;32.55;;
20040;SDS011;10181;48.072;9.884;2022-09-09T14:31:42;29.83;;;28.73;;
20040;SDS011;10181;48.072;9.884;2022-09-09T14:34:08;11.98;;;11.55;;
20040;SDS011;10181;48.072;9.884;2022-09-09T14:36:36;19.90;;;19.15;;
20040;SDS011;10181;48.072;9.884;2022-09-09T14:39:05;20.60;;;19.83;;
20040;SDS011;10181;48.072;9.884;2022-09-09T14:41:31;57.92;;;55.83;;
20040;SDS011;10181;48.072;9.884;2022-09-09T14:43:56;37.47;;;36.17;;
20040;SDS011;10181;48.072;9.884;2022-09-09T14:46:23;45.10;;;43.43;;
20040;SDS011;10181;48.072;9.884;2022-09-09T14:48:49;50.27;;;48.43;;
20040;SDS011;10181;48.072;9.884;2022-09-09T14:51:22;29.00;;;28.02;;
20040;SDS011;10181;48.072;9.884;2022-09-09T14:53:53;37.77;;;36.27;;
20040;SDS011;10181;48.072;9.884;2022-09-09T14:56:21;35.97;;;34.67;;
20040;SDS011;10181;48.072;9.884;2022-09-09T14:58:49;18.98;;;18.25;;
20040;SDS011;10181;48.072;9.884;2022-09-09T15:01:15;5.40;;;5.30;;
20040;SDS011;10181;48.072;9.884;2022-09-09T15:03:43;7.00;;;6.80;;
20040;SDS011;10181;48.072;9.884;2022-09-09T15:06:13;8.77;;;8.45;;
20040;SDS011;10181;48.072;9.884;2022-09-09T15:08:41;6.55;;;6.25;;
20040;SDS011;10181;48.072;9.884;2022-09-09T15:11:08;8.55;;;8.25;;
20040;SDS011;10181;48.072;9.884;2022-09-09T15:13:35;6.25;;;6.10;;
20040;SDS011;10181;48.072;9.884;2022-09-09T15:16:14;17.95;;;17.35;;
20040;SDS011;10181;48.072;9.884;2022-09-09T15:18:41;24.02;;;23.13;;
20040;SDS011;10181;48.072;9.884;2022-09-09T15:21:10;32.67;;;31.48;;
20040;SDS011;10181;48.072;9.884;2022-09-09T15:23:37;7.40;;;7.20;;
20040;SDS011;10181;48.072;9.884;2022-09-09T15:26:03;8.13;;;7.93;;
20040;SDS011;10181;48.072;9.884;2022-09-09T15:28:31;6.70;;;6.50;;
20040;SDS011;10181;48.072;9.884;2022-09-09T15:31:02;7.00;;;6.68;;
20040;SDS011;10181;48.072;9.884;2022-09-09T15:33:32;9.60;;;9.32;;
20040;SDS011;10181;48.072;9.884;2022-09-09T15:35:58;5.47;;;5.28;;
20040;SDS011;10181;48.072;9.884;2022-09-09T15:38:24;8.07;;;7.78;;
20040;SDS011;10181;48.072;9.884;2022-09-09T15:40:53;9.77;;;9.48;;
20040;SDS011;10181;48.072;9.884;2022-09-09T15:43:20;12.43;;;12.02;;
20040;SDS011;10181;48.072;9.884;2022-09-09T15:45:47;6.63;;;6.43;;
20040;SDS011;10181;48.072;9.884;2022-09-09T15:48:19;24.50;;;23.60;;
20040;SDS011;10181;48.072;9.884;2022-09-09T15:51:04;7.57;;;7.35;;
20040;SDS011;10181;48.072;9.884;2022-09-09T15:53:30;36.50;;;35.20;;
20040;SDS011;10181;48.072;9.884;2022-09-09T15:55:59;21.95;;;21.23;;
20040;SDS011;10181;48.072;9.884;2022-09-09T15:58:25;10.43;;;10.15;;
20040;SDS011;10181;48.072;9.884;2022-09-09T16:00:55;11.00;;;10.63;;
20040;SDS011;10181;48.072;9.884;2022-09-09T16:03:38;23.17;;;22.38;;
20040;SDS011;10181;48.072;9.884;2022-09-09T16:06:11;39.33;;;37.93;;
20040;SDS011;10181;48.072;9.884;2022-09-09T16:08:41;32.77;;;31.67;;
20040;SDS011;10181;48.072;9.884;2022-09-09T16:11:09;36.83;;;35.53;;
20040;SDS011;10181;48.072;9.884;2022-09-09T16:13:42;32.57;;;31.47;;
20040;SDS011;10181;48.072;9.884;2022-09-09T16:16:09;32.03;;;30.92;;
20040;SDS011;10181;48.072;9.884;2022-09-09T16:18:38;13.70;;;13.07;;
20040;SDS011;10181;48.072;9.884;2022-09-09T16:21:06;45.40;;;43.63;;
20040;SDS011;10181;48.072;9.884;2022-09-09T16:23:33;34.93;;;33.67;;
20040;SDS011;10181;48.072;9.884;2022-09-09T16:25:59;20.02;;;19.40;;
20040;SDS011;10181;48.072;9.884;2022-09-09T16:28:26;6.10;;;5.80;;
20040;SDS011;10181;48.072;9.884;2022-09-09T16:30:52;6.75;;;6.55;;
20040;SDS011;10181;48.072;9.884;2022-09-09T16:33:18;6.03;;;5.83;;
20040;SDS011;10181;48.072;9.884;2022-09-09T16:35:44;5.20;;;5.00;;
20040;SDS011;10181;48.072;9.884;2022-09-09T16:38:09;5.90;;;5.70;;
20040;SDS011;10181;48.072;9.884;2022-09-09T16:40:36;5.63;;;5.47;;
20040;SDS011;10181;48.072;9.884;2022-09-09T16:43:05;6.77;;;6.57;;
20040;SDS011;10181;48.072;9.884;2022-09-09T16:45:31;6.70;;;6.50;;
20040;SDS011;10181;48.072;9.884;2022-09-09T16:47:57;7.73;;;7.23;;
20040;SDS011;10181;48.072;9.884;2022-09-09T16:50:25;8.67;;;8.47;;
20040;SDS011;10181;48.072;9.884;2022-09-09T16:52:51;7.18;;;6.97;;
20040;SDS011;10181;48.072;9.884;2022-09-09T16:55:17;3.93;;;3.83;;
20040;SDS011;10181;48.072;9.884;2022-09-09T16:57:45;5.13;;;4.93;;
20040;SDS011;10181;48.072;9.884;2022-09-09T17:00:14;9.63;;;9.30;;
20040;SDS011;10181;48.072;9.884;2022-09-09T17:02:41;4.13;;;3.97;;
20040;SDS011;10181;48.072;9.884;2022-09-09T17:05:09;4.43;;;4.33;;
20040;SDS011;10181;48.072;9.884;2022-09-09T17:07:37;7.60;;;7.30;;
20040;SDS011;10181;48.072;9.884;2022-09-09T17:10:03;6.90;;;6.70;;
20040;SDS011;10181;48.072;9.884;2022-09-09T17:12:31;5.60;;;5.50;;
20040;SDS011;10181;48.072;9.884;2022-09-09T17:14:57;7.27;;;7.07;;
20040;SDS011;10181;48.072;9.884;2022-09-09T17:17:24;4.00;;;3.90;;